Time;durP1;ratioP1;P1;durP2;ratioP2;P2;SDS_P1;SDS_P2;PMS_P1;PMS_P2;Temp;Humidity;BMP_temperature;BMP_pressure;BME280_temperature;BME280_humidity;BME280_pressure;Samples;Min_cycle;Max_cycle;Signal;HPM_P1;HPM_P2
2021/11/08 00:00:12;;;;;;;3.85;1.52;;;15.90;56.90;;;;;;5076695;28;20020;-58
2021/11/08 00:02:38;;;;;;;3.47;1.60;;;15.90;56.90;;;;;;5076764;28;20024;-58
2021/11/08 00:05:07;;;;;;;3.38;1.70;;;15.90;56.90;;;;;;5076014;28;20009;-60
2021/11/08 00:07:33;;;;;;;2.90;1.70;;;15.90;56.90;;;;;;5075551;28;20080;-59
2021/11/08 00:10:01;;;;;;;3.70;1.70;;;15.90;56.90;;;;;;5075820;28;20012;-59
2021/11/08 00:12:26;;;;;;;6.38;1.50;;;15.90;56.80;;;;;;5076105;28;20020;-59
2021/11/08 00:14:56;;;;;;;3.72;1.55;;;15.90;56.90;;;;;;5075966;28;20403;-59
2021/11/08 00:17:36;;;;;;;4.93;1.70;;;15.90;56.90;;;;;;5076095;28;20051;-59
2021/11/08 00:20:11;;;;;;;2.75;1.35;;;15.90;56.90;;;;;;5075681;28;20056;-58
2021/11/08 00:22:39;;;;;;;3.08;1.70;;;15.90;56.90;;;;;;5075447;28;20043;-59
2021/11/08 00:25:05;;;;;;;2.22;1.38;;;15.90;56.90;;;;;;5058167;28;20017;-59
2021/11/08 00:27:32;;;;;;;3.03;1.73;;;15.90;56.90;;;;;;5075713;28;20032;-58
2021/11/08 00:29:59;;;;;;;2.20;1.20;;;15.90;56.90;;;;;;5075275;28;20066;-59
2021/11/08 00:32:25;;;;;;;2.85;1.45;;;15.90;56.90;;;;;;5057773;28;20044;-59
2021/11/08 00:34:51;;;;;;;2.45;1.40;;;15.90;56.90;;;;;;5074955;28;20502;-59
2021/11/08 00:37:17;;;;;;;3.10;1.52;;;15.90;56.90;;;;;;5076125;28;20092;-59
2021/11/08 00:39:43;;;;;;;3.65;1.45;;;15.90;57.00;;;;;;5075278;28;20036;-58
2021/11/08 00:42:10;;;;;;;4.05;1.42;;;15.90;56.90;;;;;;5075193;28;20044;-58
2021/11/08 00:44:36;;;;;;;3.10;1.58;;;15.90;57.00;;;;;;5075158;28;20020;-58
2021/11/08 00:47:07;;;;;;;3.15;1.65;;;15.90;56.90;;;;;;5074934;28;20027;-58
2021/11/08 00:49:33;;;;;;;4.10;1.80;;;15.90;57.00;;;;;;5074649;28;20081;-59
2021/11/08 00:52:00;;;;;;;4.18;1.83;;;15.90;56.90;;;;;;5057382;28;20029;-58
2021/11/08 00:54:27;;;;;;;4.00;1.70;;;15.80;56.90;;;;;;5056290;28;20004;-59
2021/11/08 00:56:57;;;;;;;4.03;1.70;;;15.90;56.90;;;;;;5074965;28;20502;-58
2021/11/08 00:59:25;;;;;;;1.75;1.20;;;15.90;56.90;;;;;;5074815;28;20485;-59
2021/11/08 01:01:54;;;;;;;2.55;1.55;;;15.90;56.90;;;;;;5075123;28;20023;-59
2021/11/08 01:04:22;;;;;;;3.53;1.73;;;15.90;56.90;;;;;;5074713;28;20021;-59
2021/11/08 01:06:54;;;;;;;2.65;1.85;;;15.90;56.90;;;;;;5074172;28;20040;-59
2021/11/08 01:09:20;;;;;;;3.60;1.85;;;15.80;56.90;;;;;;5074605;28;20095;-59
2021/11/08 01:11:46;;;;;;;3.17;1.50;;;15.90;57.00;;;;;;5074479;28;20085;-59
2021/11/08 01:14:12;;;;;;;3.70;1.52;;;15.90;57.00;;;;;;5056769;28;20430;-58
2021/11/08 01:16:39;;;;;;;3.97;1.52;;;15.80;56.90;;;;;;5074675;28;20036;-59
2021/11/08 01:19:08;;;;;;;4.15;1.52;;;15.90;57.00;;;;;;5074217;28;20070;-61
2021/11/08 01:21:35;;;;;;;3.42;1.40;;;15.80;56.90;;;;;;5074555;28;20044;-59
2021/11/08 01:24:02;;;;;;;3.67;1.67;;;15.80;56.90;;;;;;5056654;28;20028;-59
2021/11/08 01:26:28;;;;;;;3.13;1.50;;;15.80;57.00;;;;;;5073904;28;20047;-59
2021/11/08 01:28:54;;;;;;;3.10;1.40;;;15.80;57.00;;;;;;5073829;28;20473;-59
2021/11/08 01:31:22;;;;;;;3.20;1.85;;;15.80;57.00;;;;;;5074040;28;20111;-59
2021/11/08 01:33:50;;;;;;;3.30;1.35;;;15.80;57.00;;;;;;5074302;28;20020;-58
2021/11/08 01:36:17;;;;;;;3.65;1.65;;;15.80;57.00;;;;;;5056798;28;20024;-58
2021/11/08 01:38:45;;;;;;;3.47;1.90;;;15.80;57.00;;;;;;5074424;28;20089;-60
2021/11/08 01:41:13;;;;;;;2.85;1.60;;;15.80;57.00;;;;;;5057031;28;20025;-59
2021/11/08 01:43:41;;;;;;;3.38;1.83;;;15.80;57.00;;;;;;5074244;28;20023;-59
2021/11/08 01:46:06;;;;;;;3.58;1.40;;;15.80;57.00;;;;;;5073695;28;20107;-58
2021/11/08 01:48:32;;;;;;;3.83;1.58;;;15.80;57.00;;;;;;5073929;28;20493;-58
2021/11/08 01:50:58;;;;;;;3.28;1.60;;;15.80;57.60;;;;;;5055949;28;20384;-59
2021/11/08 01:53:24;;;;;;;4.32;1.83;;;15.80;57.00;;;;;;5073685;28;20024;-58
2021/11/08 01:55:50;;;;;;;2.58;1.38;;;15.80;57.10;;;;;;5073553;28;20108;-59
2021/11/08 01:58:20;;;;;;;3.38;1.70;;;15.80;57.00;;;;;;5055954;28;20012;-59
2021/11/08 02:00:47;;;;;;;4.13;1.70;;;15.80;57.10;;;;;;5073266;28;20020;-58
2021/11/08 02:03:14;;;;;;;3.10;1.45;;;15.80;57.00;;;;;;5073127;28;20024;-58
2021/11/08 02:05:41;;;;;;;3.63;1.50;;;15.80;57.10;;;;;;5039102;28;20471;-58
2021/11/08 02:08:07;;;;;;;3.67;1.60;;;15.80;57.10;;;;;;5073138;28;20083;-58
2021/11/08 02:10:33;;;;;;;4.32;1.38;;;15.80;57.10;;;;;;5072941;28;20035;-58
2021/11/08 02:13:00;;;;;;;4.13;1.83;;;15.80;57.10;;;;;;5055239;28;20016;-58
2021/11/08 02:15:26;;;;;;;2.72;1.50;;;15.80;57.10;;;;;;5073239;28;20037;-58
2021/11/08 02:17:52;;;;;;;4.13;1.60;;;15.80;57.00;;;;;;5073303;28;20507;-58
2021/11/08 02:20:19;;;;;;;3.53;1.73;;;15.80;57.10;;;;;;5054867;28;20012;-58
2021/11/08 02:22:45;;;;;;;4.05;1.58;;;15.80;57.10;;;;;;5073101;28;20008;-58
2021/11/08 02:25:12;;;;;;;3.33;1.50;;;15.80;57.00;;;;;;5055091;28;20138;-58
2021/11/08 02:27:41;;;;;;;3.78;1.63;;;15.80;57.00;;;;;;5055377;28;20077;-59
2021/11/08 02:30:07;;;;;;;4.35;2.00;;;15.80;57.00;;;;;;5072820;28;20019;-59
2021/11/08 02:32:33;;;;;;;3.67;1.75;;;15.80;57.00;;;;;;5072802;28;20558;-59
2021/11/08 02:35:03;;;;;;;2.85;1.52;;;15.80;57.00;;;;;;5072926;28;20052;-59
2021/11/08 02:37:29;;;;;;;5.85;1.58;;;15.80;57.10;;;;;;5073079;28;20020;-59
2021/11/08 02:39:56;;;;;;;4.88;1.90;;;15.80;57.10;;;;;;5073267;28;20377;-59
2021/11/08 02:42:22;;;;;;;3.00;1.30;;;15.80;57.00;;;;;;5073494;28;20012;-59
2021/11/08 02:44:48;;;;;;;2.58;1.45;;;15.80;57.10;;;;;;5073119;28;20016;-59
2021/11/08 02:47:15;;;;;;;4.10;1.75;;;15.80;57.10;;;;;;5073146;28;20384;-59
2021/11/08 02:49:44;;;;;;;3.47;1.52;;;15.70;57.00;;;;;;5073097;28;20019;-58
2021/11/08 02:52:12;;;;;;;3.35;1.80;;;15.80;57.00;;;;;;5055726;28;20036;-58
2021/11/08 02:54:41;;;;;;;5.40;1.50;;;15.80;57.00;;;;;;5073110;28;20013;-59
2021/11/08 02:57:07;;;;;;;3.40;1.58;;;15.80;57.00;;;;;;5073005;28;20017;-59
2021/11/08 02:59:35;;;;;;;5.18;1.60;;;15.80;57.00;;;;;;5072558;28;20410;-59
2021/11/08 03:02:01;;;;;;;4.65;1.58;;;15.70;57.00;;;;;;5072535;28;20473;-58
2021/11/08 03:04:31;;;;;;;3.80;1.83;;;15.70;57.00;;;;;;5072819;28;20066;-58
2021/11/08 03:06:57;;;;;;;2.95;1.30;;;15.70;57.00;;;;;;5072251;28;20058;-59
2021/11/08 03:09:37;;;;;;;2.80;1.20;;;15.80;57.10;;;;;;5054808;28;20078;-59
2021/11/08 03:12:12;;;;;;;3.28;1.35;;;15.80;57.10;;;;;;5055072;28;20074;-59
2021/11/08 03:14:56;;;;;;;3.13;1.60;;;15.70;57.00;;;;;;5072947;28;20037;-59
2021/11/08 03:17:24;;;;;;;5.55;1.50;;;15.80;57.10;;;;;;5073478;28;20555;-59
2021/11/08 03:19:50;;;;;;;2.53;1.23;;;15.80;57.10;;;;;;5076868;28;20545;-59
2021/11/08 03:22:26;;;;;;;2.65;1.40;;;15.80;57.10;;;;;;5076696;28;20066;-59
2021/11/08 03:24:58;;;;;;;2.60;1.30;;;15.70;57.00;;;;;;5059745;28;20115;-59
2021/11/08 03:30:15;;;;;;;2.78;1.45;;;15.70;57.00;;;;;;5058247;28;20040;-58
2021/11/08 03:32:44;;;;;;;3.50;1.40;;;15.80;57.10;;;;;;5076052;28;20499;-57
2021/11/08 03:35:12;;;;;;;3.05;1.38;;;15.70;57.00;;;;;;5076267;28;20013;-58
2021/11/08 03:37:41;;;;;;;2.67;1.48;;;15.80;57.10;;;;;;5076453;28;20084;-59
2021/11/08 03:40:12;;;;;;;2.42;1.30;;;15.80;57.10;;;;;;5076802;28;20040;-59
2021/11/08 03:42:38;;;;;;;3.47;1.67;;;15.70;57.10;;;;;;5076438;28;20028;-59
2021/11/08 03:45:06;;;;;;;4.45;1.33;;;15.70;57.00;;;;;;5076435;28;20017;-59
2021/11/08 03:47:32;;;;;;;4.45;1.88;;;15.70;57.10;;;;;;5076107;28;20025;-58
2021/11/08 03:49:58;;;;;;;5.00;1.50;;;15.70;57.10;;;;;;5076218;28;20063;-58
2021/11/08 03:52:23;;;;;;;3.15;1.40;;;15.80;57.10;;;;;;5075790;28;20060;-59
2021/11/08 03:54:52;;;;;;;2.03;1.20;;;15.70;57.10;;;;;;5075771;28;20028;-59
2021/11/08 03:57:18;;;;;;;4.60;1.73;;;15.70;57.10;;;;;;5057863;28;20036;-58
2021/11/08 03:59:45;;;;;;;2.78;1.58;;;15.70;57.10;;;;;;5058134;28;20016;-58
2021/11/08 04:02:11;;;;;;;3.67;1.75;;;15.70;57.10;;;;;;5075997;28;20013;-59
2021/11/08 04:04:36;;;;;;;2.53;1.42;;;15.70;57.10;;;;;;5058350;28;20101;-59
2021/11/08 04:07:03;;;;;;;4.38;1.70;;;15.70;57.10;;;;;;5076426;28;20059;-58
2021/11/08 04:09:29;;;;;;;4.57;1.55;;;15.70;57.10;;;;;;5059387;28;20021;-58
2021/11/08 04:11:57;;;;;;;3.72;1.70;;;15.70;57.10;;;;;;5076431;28;20400;-58
2021/11/08 04:14:25;;;;;;;3.67;1.60;;;15.70;57.10;;;;;;5076836;28;20157;-58
2021/11/08 04:16:51;;;;;;;2.78;1.52;;;15.80;57.00;;;;;;5076346;28;20036;-59
2021/11/08 04:19:18;;;;;;;3.03;1.50;;;15.90;56.60;;;;;;5057736;28;20453;-62
2021/11/08 04:21:44;;;;;;;3.72;1.80;;;16.00;56.20;;;;;;5075891;28;20029;-59
2021/11/08 04:24:10;;;;;;;3.03;1.60;;;16.20;56.00;;;;;;5076118;28;20028;-58
2021/11/08 04:26:37;;;;;;;1.95;1.35;;;16.20;55.70;;;;;;5041203;28;20051;-58
2021/11/08 04:29:04;;;;;;;3.78;1.38;;;16.30;55.60;;;;;;5075367;28;20023;-58
2021/11/08 04:31:35;;;;;;;4.82;1.58;;;16.30;55.40;;;;;;5076875;28;20024;-58
2021/11/08 04:34:04;;;;;;;3.58;1.63;;;16.30;55.40;;;;;;5076504;28;20024;-58
2021/11/08 04:41:51;;;;;;;2.03;1.30;;;16.60;54.70;;;;;;5076220;28;20024;-59
2021/11/08 04:54:28;;;;;;;2.25;1.40;;;17.20;53.30;;;;;;5058225;28;20036;-58
2021/11/08 05:32:08;;;;;;;2.97;1.48;;;18.90;49.80;;;;;;5074295;28;20087;-58
2021/11/08 05:34:35;;;;;;;2.80;1.50;;;18.90;49.40;;;;;;5074523;28;20040;-59
2021/11/08 05:37:01;;;;;;;2.30;1.42;;;19.10;49.30;;;;;;5073936;28;20017;-59
2021/11/08 05:39:27;;;;;;;2.97;1.50;;;19.10;49.10;;;;;;5073650;28;20021;-59
2021/11/08 05:41:55;;;;;;;2.75;1.40;;;19.20;48.90;;;;;;5073897;28;20016;-59
2021/11/08 05:44:21;;;;;;;2.60;1.45;;;19.30;48.70;;;;;;5073921;28;20023;-59
2021/11/08 05:46:47;;;;;;;2.63;1.40;;;19.40;48.60;;;;;;5073648;28;20016;-60
2021/11/08 05:49:14;;;;;;;3.70;1.75;;;19.50;48.50;;;;;;5073848;28;20025;-59
2021/11/08 05:51:40;;;;;;;2.67;1.50;;;19.50;48.30;;;;;;5073691;28;20048;-59
2021/11/08 05:54:06;;;;;;;2.72;1.42;;;19.50;48.30;;;;;;5056031;28;20047;-59
2021/11/08 05:56:45;;;;;;;2.63;1.40;;;19.60;48.20;;;;;;5073753;28;20102;-58
2021/11/08 06:50:52;;;;;;;3.55;1.80;;;20.50;46.80;;;;;;5055583;28;20082;-59
2021/11/08 06:53:19;;;;;;;2.53;1.48;;;20.50;46.80;;;;;;5058427;28;20037;-59
2021/11/08 06:55:50;;;;;;;2.42;1.60;;;20.60;46.70;;;;;;5076901;28;20536;-60
2021/11/08 06:58:18;;;;;;;2.35;1.30;;;20.60;46.80;;;;;;5059812;28;20101;-58
2021/11/08 07:00:45;;;;;;;2.83;1.60;;;20.60;46.70;;;;;;5076654;28;20025;-60
2021/11/08 07:03:12;;;;;;;3.03;1.35;;;20.60;46.60;;;;;;5076543;28;20032;-59
2021/11/08 07:05:41;;;;;;;1.98;1.10;;;20.60;46.70;;;;;;5058691;28;20016;-58
2021/11/08 07:08:08;;;;;;;3.00;1.63;;;20.60;47.20;;;;;;5059091;28;20054;-58
2021/11/08 07:10:35;;;;;;;3.28;1.60;;;20.70;46.60;;;;;;5076202;28;20020;-60
2021/11/08 07:13:03;;;;;;;3.45;1.75;;;20.70;46.60;;;;;;5058278;28;20523;-60
2021/11/08 07:15:29;;;;;;;4.80;1.80;;;20.70;46.20;;;;;;5058340;28;20005;-60
2021/11/08 07:17:56;;;;;;;11.13;2.85;;;20.60;46.00;;;;;;5041271;28;20501;-59
2021/11/08 07:20:23;;;;;;;10.90;3.70;;;20.50;46.00;;;;;;5058000;28;20059;-58
2021/11/08 07:22:49;;;;;;;21.48;4.72;;;20.40;46.90;;;;;;5057611;28;20079;-59
2021/11/08 07:25:17;;;;;;;19.10;5.03;;;20.30;48.10;;;;;;5075269;28;20019;-59
2021/11/08 07:27:46;;;;;;;16.23;4.47;;;20.20;48.50;;;;;;5074018;28;20099;-60
2021/11/08 07:30:13;;;;;;;21.65;5.07;;;20.00;47.90;;;;;;5074968;28;20029;-59
2021/11/08 07:32:41;;;;;;;21.75;4.95;;;19.80;48.10;;;;;;5057482;28;20059;-58
2021/11/08 07:35:09;;;;;;;17.42;5.57;;;19.60;47.40;;;;;;5075337;28;20009;-59
2021/11/08 07:37:35;;;;;;;22.45;5.15;;;19.60;47.70;;;;;;5071443;28;20112;-60
2021/11/08 07:40:02;;;;;;;16.42;5.05;;;19.40;47.40;;;;;;5075999;28;20024;-58
2021/11/08 07:42:29;;;;;;;18.05;6.00;;;19.20;47.50;;;;;;5057773;28;20033;-59
2021/11/08 07:44:57;;;;;;;19.10;4.85;;;19.00;47.70;;;;;;5040911;28;20093;-59
2021/11/08 07:47:22;;;;;;;15.88;5.20;;;18.90;48.20;;;;;;5041379;28;20036;-59
2021/11/08 07:49:49;;;;;;;14.30;4.85;;;18.90;48.30;;;;;;5075705;28;20125;-60
2021/11/08 07:52:17;;;;;;;17.10;5.18;;;18.90;47.90;;;;;;5075469;28;20025;-59
2021/11/08 07:54:43;;;;;;;14.98;4.90;;;18.80;47.90;;;;;;5075499;28;20078;-58
2021/11/08 07:57:09;;;;;;;15.20;5.10;;;18.70;48.40;;;;;;5075285;28;20027;-58
2021/11/08 07:59:35;;;;;;;18.13;5.22;;;18.60;48.50;;;;;;5075829;28;20033;-59
2021/11/08 08:02:04;;;;;;;15.48;4.45;;;18.70;48.10;;;;;;5040460;28;20063;-59
2021/11/08 08:04:30;;;;;;;19.35;5.28;;;18.60;48.20;;;;;;5074399;28;20020;-61
2021/11/08 08:06:56;;;;;;;20.15;5.05;;;18.60;48.20;;;;;;5051735;28;20107;-59
2021/11/08 08:09:22;;;;;;;18.83;4.95;;;18.60;48.10;;;;;;5054812;28;20017;-60
2021/11/08 08:11:50;;;;;;;24.92;5.18;;;18.70;48.00;;;;;;5038434;28;20426;-59
2021/11/08 08:14:17;;;;;;;42.72;5.93;;;18.70;48.70;;;;;;5037017;28;20037;-60
2021/11/08 08:16:45;;;;;;;16.77;5.93;;;18.70;47.90;;;;;;5055933;28;20019;-60
2021/11/08 08:19:11;;;;;;;14.13;5.00;;;18.70;47.60;;;;;;5038757;28;20092;-59
2021/11/08 08:21:37;;;;;;;15.57;4.97;;;18.60;47.40;;;;;;5037739;28;20060;-60
2021/11/08 08:24:03;;;;;;;20.55;5.30;;;18.50;47.70;;;;;;5036851;28;20017;-60
2021/11/08 08:26:33;;;;;;;15.23;4.95;;;18.40;47.70;;;;;;5054204;28;20469;-60
2021/11/08 08:29:03;;;;;;;15.70;4.82;;;18.30;48.00;;;;;;5053955;28;20036;-60
2021/11/08 08:31:31;;;;;;;17.75;5.45;;;18.30;47.80;;;;;;5036946;28;20087;-59
2021/11/08 08:34:00;;;;;;;39.55;6.63;;;18.30;48.00;;;;;;5053988;28;20021;-60
2021/11/08 08:36:28;;;;;;;17.55;5.80;;;18.30;47.80;;;;;;5036082;28;20075;-59
2021/11/08 08:38:58;;;;;;;15.15;5.60;;;18.40;47.60;;;;;;5053987;28;20485;-59
2021/11/08 08:41:25;;;;;;;21.65;5.70;;;18.50;47.70;;;;;;5036749;28;20070;-60
2021/11/08 08:43:51;;;;;;;29.35;6.40;;;18.50;47.60;;;;;;5036023;28;20041;-62
2021/11/08 08:46:20;;;;;;;27.45;6.70;;;18.50;47.70;;;;;;5053997;28;20024;-59
2021/11/08 08:48:46;;;;;;;17.80;5.97;;;18.50;47.60;;;;;;5054288;28;20125;-59
2021/11/08 08:51:13;;;;;;;23.15;6.22;;;18.50;47.70;;;;;;5036237;28;20029;-59
2021/11/08 08:53:41;;;;;;;16.90;5.88;;;18.50;47.70;;;;;;5036085;28;20021;-59
2021/11/08 08:56:07;;;;;;;18.83;6.38;;;18.30;48.20;;;;;;5036018;28;20040;-58
2021/11/08 08:58:33;;;;;;;20.17;6.70;;;18.20;48.20;;;;;;5035637;28;20019;-59
2021/11/08 09:00:59;;;;;;;18.17;6.18;;;18.10;48.30;;;;;;5035117;28;20029;-59
2021/11/08 09:03:28;;;;;;;21.75;5.93;;;18.10;48.80;;;;;;5035222;28;20043;-59
2021/11/08 09:05:54;;;;;;;15.70;6.13;;;18.30;48.50;;;;;;5019937;28;20021;-60
2021/11/08 09:08:20;;;;;;;17.55;5.85;;;18.50;48.10;;;;;;5036290;28;20053;-60
2021/11/08 09:10:46;;;;;;;21.10;6.22;;;18.60;47.50;;;;;;5054005;28;20025;-59
2021/11/08 09:13:12;;;;;;;19.65;5.85;;;18.90;47.00;;;;;;5036198;28;20009;-60
2021/11/08 09:15:40;;;;;;;23.58;6.20;;;19.10;46.60;;;;;;5052968;28;20028;-59
2021/11/08 09:18:06;;;;;;;21.30;6.70;;;19.40;46.50;;;;;;5018829;28;20096;-60
2021/11/08 09:20:35;;;;;;;22.25;6.70;;;19.50;46.10;;;;;;5053708;28;20135;-59
2021/11/08 09:23:01;;;;;;;24.58;7.13;;;19.40;46.50;;;;;;5035339;28;20021;-59
2021/11/08 09:25:28;;;;;;;17.67;6.68;;;19.20;46.60;;;;;;5035658;28;20493;-58
2021/11/08 09:27:55;;;;;;;20.05;6.18;;;18.80;47.40;;;;;;5053288;28;20020;-59
2021/11/08 09:30:24;;;;;;;16.45;6.10;;;18.80;47.70;;;;;;5053264;28;20049;-58
2021/11/08 09:32:50;;;;;;;17.58;6.13;;;18.90;47.60;;;;;;5053270;28;20103;-59
2021/11/08 09:35:16;;;;;;;20.23;6.28;;;18.90;47.60;;;;;;5035384;28;20067;-59
2021/11/08 09:37:45;;;;;;;18.33;6.47;;;18.80;47.70;;;;;;5035398;28;20424;-59
2021/11/08 09:40:15;;;;;;;22.60;6.90;;;18.90;47.60;;;;;;5053855;28;20082;-60
2021/11/08 09:42:42;;;;;;;19.33;5.90;;;18.90;47.50;;;;;;5053392;28;20386;-60
2021/11/08 09:45:08;;;;;;;18.27;6.22;;;18.90;47.90;;;;;;5053337;28;20028;-61
2021/11/08 09:47:38;;;;;;;16.23;6.00;;;18.80;47.80;;;;;;5053835;28;20013;-60
2021/11/08 09:50:08;;;;;;;23.42;5.80;;;18.80;48.30;;;;;;5035679;28;20049;-60
2021/11/08 09:52:42;;;;;;;26.15;6.90;;;18.90;48.40;;;;;;5052930;28;20020;-60
2021/11/08 09:55:11;;;;;;;20.77;6.07;;;18.90;48.30;;;;;;5052882;28;20123;-59
2021/11/08 09:57:37;;;;;;;19.13;6.45;;;19.00;48.00;;;;;;5018507;28;20009;-60
2021/11/08 10:00:17;;;;;;;23.27;6.35;;;19.30;48.00;;;;;;5052559;28;20020;-60
2021/11/08 10:02:54;;;;;;;18.95;5.95;;;19.60;47.90;;;;;;5034992;28;20108;-59
2021/11/08 10:05:21;;;;;;;18.50;5.50;;;19.90;47.60;;;;;;5035418;28;20100;-62
2021/11/08 10:07:48;;;;;;;24.50;6.13;;;20.10;47.50;;;;;;5065557;28;20033;-59
2021/11/08 10:10:14;;;;;;;19.50;6.45;;;20.30;47.70;;;;;;5054947;28;20035;-58
2021/11/08 10:12:43;;;;;;;20.25;6.03;;;20.40;46.60;;;;;;5055102;28;20025;-59
2021/11/08 10:15:11;;;;;;;19.83;6.15;;;20.10;46.30;;;;;;5055613;28;20052;-58
2021/11/08 10:17:37;;;;;;;19.02;6.00;;;19.90;47.00;;;;;;5055188;28;20009;-59
2021/11/08 10:20:06;;;;;;;22.35;6.60;;;19.90;46.80;;;;;;5073386;28;20013;-59
2021/11/08 10:22:35;;;;;;;21.92;6.50;;;19.90;46.70;;;;;;5055290;28;20055;-59
2021/11/08 10:25:03;;;;;;;21.55;6.05;;;19.90;46.50;;;;;;5072328;28;20043;-58
2021/11/08 10:27:45;;;;;;;20.80;5.72;;;19.80;46.40;;;;;;5054772;28;20020;-58
2021/11/08 10:30:28;;;;;;;18.98;6.05;;;19.70;46.80;;;;;;5037641;28;20031;-58
2021/11/08 10:33:31;;;;;;;18.38;5.90;;;19.70;46.60;;;;;;5072278;28;20028;-57
2021/11/08 10:36:02;;;;;;;17.95;5.40;;;19.50;46.90;;;;;;4954975;28;20058;-57
2021/11/08 10:38:32;;;;;;;18.85;6.38;;;19.60;46.90;;;;;;4970202;28;20085;-57
2021/11/08 10:40:59;;;;;;;14.85;5.78;;;19.80;46.80;;;;;;4970486;28;20051;-58
2021/11/08 10:43:26;;;;;;;16.40;5.90;;;19.90;46.60;;;;;;4970610;28;20034;-56
2021/11/08 10:45:53;;;;;;;19.35;5.43;;;19.80;46.30;;;;;;4970902;28;20023;-62
2021/11/08 10:48:21;;;;;;;17.40;5.72;;;19.80;46.70;;;;;;4970340;28;20019;-58
2021/11/08 10:50:48;;;;;;;21.55;6.28;;;19.70;46.60;;;;;;4970917;28;20042;-57
2021/11/08 10:53:14;;;;;;;23.50;6.45;;;19.60;46.90;;;;;;4954529;28;20039;-58
2021/11/08 10:55:40;;;;;;;20.00;6.15;;;19.50;47.70;;;;;;4970591;28;20062;-58
2021/11/08 10:58:11;;;;;;;19.48;6.65;;;19.50;47.40;;;;;;4955102;28;20027;-58
2021/11/08 11:01:05;;;;;;;22.30;6.38;;;19.40;47.50;;;;;;4956583;28;20019;-58
2021/11/08 11:03:32;;;;;;;23.10;6.47;;;19.40;47.80;;;;;;4963387;28;20034;-59
2021/11/08 11:06:03;;;;;;;21.33;5.55;;;19.50;47.70;;;;;;4972728;28;20029;-59
2021/11/08 11:08:30;;;;;;;15.00;5.22;;;19.70;47.40;;;;;;4972564;28;20038;-59
2021/11/08 11:11:05;;;;;;;19.02;5.07;;;19.80;46.90;;;;;;5067286;28;20127;-59
2021/11/08 11:13:32;;;;;;;18.38;5.22;;;19.90;46.80;;;;;;5073431;28;20021;-58
2021/11/08 11:16:03;;;;;;;21.02;5.20;;;19.90;46.80;;;;;;5073172;28;20009;-58
2021/11/08 11:18:35;;;;;;;20.08;5.43;;;20.00;46.70;;;;;;5073549;28;20093;-59
2021/11/08 11:21:20;;;;;;;14.75;5.18;;;20.00;46.60;;;;;;5073905;28;20039;-59
2021/11/08 11:23:48;;;;;;;17.05;5.20;;;20.10;46.40;;;;;;5074006;28;20024;-58
2021/11/08 11:26:17;;;;;;;14.95;4.95;;;20.20;46.20;;;;;;5038709;28;20013;-58
2021/11/08 11:28:45;;;;;;;18.05;4.90;;;20.20;46.20;;;;;;5073105;28;20013;-57
2021/11/08 11:31:19;;;;;;;16.27;5.32;;;20.20;46.20;;;;;;5073190;28;20028;-58
2021/11/08 11:33:46;;;;;;;17.42;5.00;;;20.20;46.20;;;;;;5073536;28;20005;-59
2021/11/08 11:36:16;;;;;;;11.05;4.82;;;20.20;46.00;;;;;;5055598;28;20023;-59
2021/11/08 11:38:44;;;;;;;17.48;4.60;;;20.20;46.00;;;;;;5057067;28;20095;-59
2021/11/08 11:41:19;;;;;;;16.73;4.95;;;20.30;45.90;;;;;;5076746;28;20103;-59
2021/11/08 11:43:54;;;;;;;17.58;5.18;;;20.30;45.90;;;;;;5075809;28;20503;-58
2021/11/08 11:46:22;;;;;;;12.05;4.80;;;20.20;45.80;;;;;;5075589;28;20051;-58
2021/11/08 11:48:50;;;;;;;14.93;4.88;;;20.20;45.90;;;;;;5040607;28;20019;-59
2021/11/08 11:51:22;;;;;;;15.13;5.28;;;20.30;45.70;;;;;;5074782;28;20024;-59
2021/11/08 11:53:47;;;;;;;18.98;4.68;;;20.30;45.70;;;;;;5075040;28;20019;-63
2021/11/08 11:56:15;;;;;;;19.08;5.60;;;19.40;44.80;;;;;;5040945;28;20017;-64
2021/11/08 11:58:44;;;;;;;18.73;5.30;;;18.10;47.20;;;;;;5075773;28;20020;-63
2021/11/08 12:01:11;;;;;;;20.38;5.22;;;17.60;48.30;;;;;;5076282;28;20175;-63
2021/11/08 12:03:38;;;;;;;15.30;5.20;;;17.40;49.20;;;;;;5075859;28;20013;-61
2021/11/08 12:06:04;;;;;;;17.38;5.07;;;17.00;49.40;;;;;;5057937;28;20044;-64
2021/11/08 12:08:34;;;;;;;16.63;4.72;;;16.70;50.00;;;;;;5038638;28;20041;-63
2021/11/08 12:11:01;;;;;;;15.95;4.75;;;16.70;50.60;;;;;;5037291;28;20452;-62
2021/11/08 12:13:29;;;;;;;16.75;5.30;;;16.20;51.20;;;;;;5020447;28;20025;-64
2021/11/08 12:15:56;;;;;;;17.70;5.05;;;16.50;50.70;;;;;;5020196;28;20024;-63
2021/11/08 12:18:22;;;;;;;18.13;5.72;;;16.50;50.40;;;;;;5054443;28;20017;-62
2021/11/08 12:20:53;;;;;;;21.42;5.65;;;16.50;51.00;;;;;;5036424;28;20044;-62
2021/11/08 12:23:23;;;;;;;19.65;5.28;;;16.60;51.10;;;;;;5036392;28;20449;-63
2021/11/08 12:25:50;;;;;;;19.33;5.90;;;16.60;50.70;;;;;;5053471;28;20021;-63
2021/11/08 12:28:23;;;;;;;22.85;5.43;;;16.00;51.80;;;;;;5053886;28;20213;-62
2021/11/08 12:30:55;;;;;;;16.67;4.95;;;16.20;52.60;;;;;;5035744;28;20039;-63
2021/11/08 12:33:21;;;;;;;;;;;16.20;52.00;;;;;;5054276;28;20461;-63
2021/11/08 12:35:47;;;;;;;17.50;5.75;;;16.40;51.20;;;;;;5053719;28;19915;-62
2021/11/08 12:38:27;;;;;;;25.88;6.15;;;15.80;52.70;;;;;;5036008;28;20096;-63
2021/11/08 12:41:45;;;;;;;24.87;6.17;;;16.20;51.80;;;;;;5054070;28;20021;-58
2021/11/08 12:44:11;;;;;;;17.08;5.88;;;15.90;52.10;;;;;;4953691;28;20783;-57
2021/11/08 12:46:50;;;;;;;24.38;5.20;;;16.00;53.30;;;;;;4938004;29;20111;-58
2021/11/08 12:49:16;;;;;;;18.48;5.30;;;16.20;51.40;;;;;;4937472;29;20146;-55
2021/11/08 12:52:14;;;;;;;19.08;4.15;;;16.10;49.90;;;;;;4954541;29;20035;-57
2021/11/08 12:55:12;;;;;;;19.48;4.72;;;16.00;49.80;;;;;;4931719;29;20122;-55
2021/11/08 12:57:40;;;;;;;19.23;4.95;;;16.10;50.00;;;;;;4954734;29;20026;-58
2021/11/08 13:00:17;;;;;;;20.42;4.38;;;16.20;50.00;;;;;;4937958;29;20047;-58
2021/11/08 13:02:53;;;;;;;16.17;4.60;;;16.20;49.90;;;;;;4954279;29;20098;-56
2021/11/08 13:05:25;;;;;;;17.42;4.43;;;16.60;49.70;;;;;;4953846;29;20019;-60
2021/11/08 13:07:53;;;;;;;13.30;3.90;;;16.70;49.40;;;;;;4966860;28;20535;-59
2021/11/08 13:10:25;;;;;;;20.90;4.78;;;16.80;49.10;;;;;;4957842;28;20057;-56
2021/11/08 13:12:51;;;;;;;16.45;4.78;;;16.80;48.30;;;;;;4973262;28;20039;-57
2021/11/08 13:15:19;;;;;;;18.02;4.45;;;16.70;48.40;;;;;;4957250;28;20019;-57
2021/11/08 13:17:45;;;;;;;17.88;4.45;;;16.70;48.50;;;;;;4972661;28;20094;-57
2021/11/08 13:20:11;;;;;;;15.93;4.20;;;16.70;48.90;;;;;;5037178;28;20116;-58
2021/11/08 13:22:39;;;;;;;18.60;4.72;;;16.70;48.90;;;;;;5073369;28;20032;-59
2021/11/08 13:25:15;;;;;;;14.60;4.53;;;16.80;49.10;;;;;;5073812;28;20024;-58
2021/11/08 13:27:49;;;;;;;21.00;5.00;;;16.70;49.40;;;;;;5055407;28;20021;-57
2021/11/08 13:30:26;;;;;;;26.73;4.65;;;16.40;50.20;;;;;;5072566;28;20023;-59
2021/11/08 13:32:53;;;;;;;21.40;5.00;;;16.50;49.70;;;;;;5054017;28;20477;-58
2021/11/08 13:35:25;;;;;;;18.48;4.70;;;16.50;50.00;;;;;;5037765;28;20043;-57
2021/11/08 13:38:20;;;;;;;17.80;4.70;;;16.70;49.40;;;;;;5073134;28;20108;-56
2021/11/08 13:40:54;;;;;;;15.38;3.92;;;16.70;49.50;;;;;;5037861;28;20043;-57
2021/11/08 13:43:21;;;;;;;15.02;4.40;;;17.00;49.20;;;;;;5073744;28;20028;-56
2021/11/08 13:45:58;;;;;;;19.05;4.97;;;16.80;48.50;;;;;;5073044;28;20015;-57
2021/11/08 13:48:44;;;;;;;17.63;4.57;;;17.00;49.40;;;;;;5038624;28;20074;-57
2021/11/08 13:51:32;;;;;;;21.05;4.70;;;17.10;48.70;;;;;;5073087;28;20362;-56
2021/11/08 13:54:28;;;;;;;13.77;4.00;;;17.00;49.10;;;;;;5072951;28;20020;-55
2021/11/08 13:56:55;;;;;;;17.58;4.22;;;17.00;49.20;;;;;;5064403;28;20059;-57
2021/11/08 13:59:25;;;;;;;18.20;4.13;;;16.90;49.30;;;;;;5072694;28;20077;-57
2021/11/08 14:02:00;;;;;;;15.65;4.60;;;17.10;49.40;;;;;;5072432;28;20025;-55
2021/11/08 14:04:36;;;;;;;11.90;4.05;;;17.30;49.20;;;;;;5072350;28;20021;-59
2021/11/08 14:07:03;;;;;;;16.33;5.22;;;17.40;49.30;;;;;;5048177;28;20042;-57
2021/11/08 14:09:35;;;;;;;17.90;4.45;;;17.30;48.60;;;;;;5052608;28;20009;-59
2021/11/08 14:12:05;;;;;;;23.35;4.40;;;17.20;48.60;;;;;;5052525;28;20052;-58
2021/11/08 14:14:38;;;;;;;17.88;4.68;;;17.20;49.00;;;;;;5034633;28;20045;-58
2021/11/08 14:17:26;;;;;;;19.08;4.60;;;17.10;48.80;;;;;;5034984;28;20100;-58
2021/11/08 14:19:54;;;;;;;20.10;3.67;;;17.30;48.50;;;;;;5051869;28;20021;-62
2021/11/08 14:22:28;;;;;;;14.70;3.70;;;17.10;48.30;;;;;;5052186;28;20532;-58
2021/11/08 14:25:00;;;;;;;13.73;3.63;;;17.60;47.60;;;;;;5052155;28;20025;-61
2021/11/08 14:27:28;;;;;;;14.50;3.83;;;17.90;46.90;;;;;;5052348;28;20021;-61
2021/11/08 14:30:15;;;;;;;14.05;3.65;;;18.20;46.20;;;;;;5052350;28;20045;-60
2021/11/08 14:32:41;;;;;;;16.35;3.78;;;18.50;45.50;;;;;;5052310;28;20504;-60
2021/11/08 14:35:12;;;;;;;21.27;4.45;;;18.70;44.90;;;;;;5034541;28;20091;-59